createdAt,value
2017-09-21T00:01:39.499Z,1.30
2017-09-21T00:04:07.373Z,1.10
2017-09-21T00:06:35.329Z,1.37
2017-09-21T00:09:03.311Z,1.37
2017-09-21T00:11:31.149Z,1.33
2017-09-21T00:13:59.098Z,1.67
2017-09-21T00:16:27.026Z,1.20
2017-09-21T00:18:54.898Z,1.57
2017-09-21T00:21:22.803Z,1.40
2017-09-21T00:23:50.681Z,1.30
2017-09-21T00:26:18.497Z,1.27
2017-09-21T00:28:47.170Z,1.53
2017-09-21T00:31:15.825Z,1.30
2017-09-21T00:33:43.630Z,1.77
2017-09-21T00:36:12.293Z,3.03
2017-09-21T00:38:40.236Z,1.63
2017-09-21T00:41:08.225Z,1.90
2017-09-21T00:43:36.271Z,2.00
2017-09-21T00:46:04.153Z,1.77
2017-09-21T00:48:32.099Z,2.10
2017-09-21T00:51:00.120Z,2.30
2017-09-21T00:53:28.018Z,1.60
2017-09-21T00:55:55.961Z,2.13
2017-09-21T00:58:23.957Z,1.80
2017-09-21T01:00:51.823Z,2.07
2017-09-21T01:03:20.519Z,1.70
2017-09-21T01:05:48.483Z,1.50
2017-09-21T01:08:16.405Z,1.83
2017-09-21T01:10:44.379Z,1.83
2017-09-21T01:13:12.290Z,1.93
2017-09-21T01:15:40.200Z,1.60
2017-09-21T01:18:08.202Z,1.77
2017-09-21T01:20:36.185Z,1.60
2017-09-21T01:23:04.087Z,1.83
2017-09-21T01:25:32.121Z,1.63
2017-09-21T01:28:00.077Z,1.50
2017-09-21T01:30:27.950Z,1.73
2017-09-21T01:32:55.822Z,2.43
2017-09-21T01:35:23.706Z,1.90
2017-09-21T01:37:51.603Z,1.43
2017-09-21T01:40:19.590Z,1.37
2017-09-21T01:42:47.485Z,1.70
2017-09-21T01:45:15.307Z,1.20
2017-09-21T01:47:44.071Z,1.73
2017-09-21T01:50:11.923Z,1.37
2017-09-21T01:52:39.815Z,1.20
2017-09-21T01:55:07.734Z,1.50
2017-09-21T01:57:35.621Z,1.83
2017-09-21T02:00:03.495Z,1.23
2017-09-21T02:02:31.468Z,1.40
2017-09-21T02:04:59.303Z,1.10
2017-09-21T02:07:27.151Z,0.97
2017-09-21T02:09:55.060Z,1.70
2017-09-21T02:12:22.941Z,1.20
2017-09-21T02:14:50.762Z,1.83
2017-09-21T02:17:18.642Z,1.03
2017-09-21T02:19:46.514Z,1.20
2017-09-21T02:22:14.477Z,1.40
2017-09-21T02:24:42.448Z,1.33
2017-09-21T02:27:10.323Z,1.20
2017-09-21T02:29:38.140Z,1.30
2017-09-21T02:32:06.113Z,1.30
2017-09-21T02:34:33.983Z,0.90
2017-09-21T02:37:01.893Z,1.13
2017-09-21T02:39:29.700Z,1.30
2017-09-21T02:41:57.579Z,1.00
2017-09-21T02:44:25.380Z,1.60
2017-09-21T02:46:53.333Z,1.27
2017-09-21T02:49:21.236Z,1.23
2017-09-21T02:51:49.102Z,1.30
2017-09-21T02:54:17.046Z,1.57
2017-09-21T02:56:44.944Z,1.50
2017-09-21T02:59:12.829Z,1.77
2017-09-21T03:01:40.743Z,1.67
2017-09-21T03:04:08.599Z,1.37
2017-09-21T03:06:36.508Z,1.70
2017-09-21T03:09:05.206Z,1.90
2017-09-21T03:11:33.837Z,1.00
2017-09-21T03:14:01.781Z,2.47
2017-09-21T03:16:29.620Z,1.53
2017-09-21T03:18:57.488Z,1.30
2017-09-21T03:21:25.397Z,1.30
2017-09-21T03:23:53.248Z,1.50
2017-09-21T03:26:21.081Z,1.30
2017-09-21T03:28:48.995Z,1.43
2017-09-21T03:31:16.804Z,1.17
2017-09-21T03:33:45.606Z,1.70
2017-09-21T03:36:13.510Z,1.23
2017-09-21T03:38:41.464Z,1.43
2017-09-21T03:41:09.355Z,1.37
2017-09-21T03:43:39.868Z,1.10
2017-09-21T03:46:07.811Z,1.30
2017-09-21T03:48:35.768Z,0.93
2017-09-21T03:51:03.654Z,1.70
2017-09-21T03:53:31.491Z,1.23
2017-09-21T03:55:59.425Z,0.87
2017-09-21T03:58:27.281Z,1.20
2017-09-21T04:00:55.184Z,1.20
2017-09-21T04:03:23.133Z,1.30
2017-09-21T04:05:51.805Z,1.27
2017-09-21T04:08:19.885Z,1.17
2017-09-21T04:10:48.621Z,1.20
2017-09-21T04:13:16.426Z,1.03
2017-09-21T04:15:44.305Z,1.30
2017-09-21T04:18:12.197Z,1.50
2017-09-21T04:20:40.857Z,1.20
2017-09-21T04:23:08.723Z,1.10
2017-09-21T04:25:36.572Z,1.83
2017-09-21T04:28:04.384Z,1.17
2017-09-21T04:30:32.270Z,1.43
2017-09-21T04:33:00.832Z,1.33
2017-09-21T04:35:28.664Z,1.13
2017-09-21T04:37:56.516Z,1.43
2017-09-21T04:40:24.501Z,1.10
2017-09-21T04:45:50.007Z,0.80
2017-09-21T04:48:17.885Z,1.27
2017-09-21T04:50:45.817Z,1.30
2017-09-21T04:53:13.823Z,1.70
2017-09-21T04:55:43.590Z,1.50
2017-09-21T04:58:11.419Z,1.73
2017-09-21T05:00:39.379Z,1.43
2017-09-21T05:03:07.176Z,1.40
2017-09-21T05:05:36.702Z,1.80
2017-09-21T05:08:04.651Z,1.30
2017-09-21T05:10:32.645Z,1.07
2017-09-21T05:13:00.487Z,1.00
2017-09-21T05:15:29.129Z,1.30
2017-09-21T05:17:57.354Z,1.07
2017-09-21T05:20:25.148Z,1.00
2017-09-21T05:22:53.416Z,1.10
2017-09-21T05:25:21.306Z,1.40
2017-09-21T05:27:50.209Z,1.70
2017-09-21T05:30:18.047Z,1.37
2017-09-21T05:32:46.396Z,1.27
2017-09-21T05:35:14.356Z,1.77
2017-09-21T05:37:47.540Z,1.23
2017-09-21T05:40:15.470Z,1.33
2017-09-21T05:42:43.239Z,1.27
2017-09-21T05:45:11.057Z,1.33
2017-09-21T05:47:38.907Z,1.30
2017-09-21T05:50:06.724Z,1.50
2017-09-21T05:52:35.223Z,1.50
2017-09-21T05:55:03.998Z,1.47
2017-09-21T05:57:32.964Z,1.80
2017-09-21T06:00:00.749Z,1.60
2017-09-21T06:02:28.754Z,1.77
2017-09-21T06:04:56.621Z,2.27
2017-09-21T06:07:24.508Z,4.03
2017-09-21T06:09:58.082Z,2.03
2017-09-21T06:12:25.948Z,2.73
2017-09-21T06:14:54.702Z,2.17
2017-09-21T06:17:23.496Z,2.33
2017-09-21T06:19:51.361Z,2.50
2017-09-21T06:22:19.288Z,2.70
2017-09-21T06:24:47.164Z,3.50
2017-09-21T06:27:15.089Z,2.10
2017-09-21T06:29:43.111Z,1.70
2017-09-21T06:32:10.987Z,2.00
2017-09-21T06:34:38.921Z,1.00
2017-09-21T06:37:06.742Z,1.07
2017-09-21T06:39:34.657Z,1.27
2017-09-21T06:42:03.325Z,1.30
2017-09-21T06:44:32.251Z,1.30
2017-09-21T06:47:00.218Z,1.40
2017-09-21T06:49:29.411Z,1.00
2017-09-21T06:51:57.403Z,1.40
2017-09-21T06:54:28.504Z,1.23
2017-09-21T06:56:56.524Z,1.00
2017-09-21T06:59:29.169Z,1.60
2017-09-21T07:01:57.229Z,0.87
2017-09-21T07:07:00.973Z,1.90
2017-09-21T07:09:31.531Z,1.10
2017-09-21T07:11:59.452Z,0.93
2017-09-21T07:14:27.429Z,1.03
2017-09-21T07:16:55.328Z,1.00
2017-09-21T07:19:23.157Z,1.50
2017-09-21T07:21:51.116Z,1.50
2017-09-21T07:24:18.989Z,2.20
2017-09-21T07:26:46.761Z,1.23
2017-09-21T07:29:14.751Z,1.43
2017-09-21T07:31:42.701Z,1.00
2017-09-21T07:34:11.373Z,2.10
2017-09-21T07:36:39.234Z,1.37
2017-09-21T07:39:07.099Z,2.00
2017-09-21T07:41:35.099Z,1.67
2017-09-21T07:44:02.917Z,1.70
2017-09-21T07:46:30.851Z,1.47
2017-09-21T07:48:58.851Z,1.37
2017-09-21T07:51:26.736Z,1.43
2017-09-21T07:53:54.624Z,2.17
2017-09-21T07:56:22.567Z,1.60
2017-09-21T07:58:50.411Z,2.53
2017-09-21T08:01:18.280Z,2.00
2017-09-21T08:03:46.233Z,2.47
2017-09-21T08:06:14.009Z,3.17
2017-09-21T08:08:41.904Z,2.80
2017-09-21T08:11:09.871Z,2.53
2017-09-21T08:13:37.717Z,3.10
2017-09-21T08:16:05.573Z,4.40
2017-09-21T08:18:34.183Z,5.13
2017-09-21T08:21:01.975Z,5.30
2017-09-21T08:23:30.277Z,6.30
2017-09-21T08:25:58.182Z,6.00
2017-09-21T08:28:26.033Z,6.40
2017-09-21T08:30:53.801Z,7.70
2017-09-21T08:33:21.610Z,7.10
2017-09-21T08:35:49.659Z,6.97
2017-09-21T08:38:17.468Z,8.20
2017-09-21T08:40:45.431Z,9.07
2017-09-21T08:43:13.313Z,8.33
2017-09-21T08:45:41.131Z,8.33
2017-09-21T08:48:09.098Z,8.47
2017-09-21T08:50:37.014Z,8.47
2017-09-21T08:53:08.010Z,10.37
2017-09-21T08:55:35.925Z,9.90
2017-09-21T08:58:04.648Z,7.70
2017-09-21T09:00:32.609Z,8.53
2017-09-21T09:03:00.386Z,8.83
2017-09-21T09:05:28.195Z,8.50
2017-09-21T09:07:56.242Z,7.83
2017-09-21T09:10:24.918Z,9.07
2017-09-21T09:12:52.761Z,9.20
2017-09-21T09:15:20.613Z,10.97
2017-09-21T09:17:48.634Z,8.37
2017-09-21T09:20:16.411Z,8.60
2017-09-21T09:22:44.968Z,9.60
2017-09-21T09:25:12.821Z,8.93
2017-09-21T09:27:40.740Z,9.17
2017-09-21T09:30:08.562Z,9.70
2017-09-21T09:32:36.494Z,8.27
2017-09-21T09:35:04.391Z,7.60
2017-09-21T09:37:32.377Z,8.60
2017-09-21T09:40:00.237Z,8.57
2017-09-21T09:42:28.165Z,8.20
2017-09-21T09:44:56.070Z,7.00
2017-09-21T09:47:23.930Z,8.33
2017-09-21T09:49:51.857Z,8.07
2017-09-21T09:52:19.788Z,8.40
2017-09-21T09:54:47.701Z,7.93
2017-09-21T09:57:15.626Z,7.50
2017-09-21T09:59:43.455Z,6.50
2017-09-21T10:02:11.333Z,7.50
2017-09-21T10:04:39.279Z,8.13
2017-09-21T10:07:07.976Z,8.00
2017-09-21T10:09:35.842Z,7.43
2017-09-21T10:12:03.744Z,7.23
2017-09-21T10:14:31.682Z,7.90
2017-09-21T10:16:59.485Z,8.37
2017-09-21T10:19:27.391Z,9.03
2017-09-21T10:21:55.488Z,8.57
2017-09-21T10:24:24.140Z,9.00
2017-09-21T10:26:52.100Z,7.40
2017-09-21T10:29:19.974Z,9.60
2017-09-21T10:31:47.849Z,7.47
2017-09-21T10:34:15.665Z,8.80
2017-09-21T10:36:44.361Z,9.40
2017-09-21T10:39:12.264Z,9.77
2017-09-21T10:41:40.190Z,10.10
2017-09-21T10:44:07.983Z,8.43
2017-09-21T10:46:35.839Z,10.20
2017-09-21T10:49:03.700Z,10.17
2017-09-21T10:51:31.670Z,9.30
2017-09-21T10:53:59.527Z,9.40
2017-09-21T10:56:28.157Z,9.20
2017-09-21T10:58:56.076Z,10.30
2017-09-21T11:01:23.997Z,11.07
2017-09-21T11:03:51.922Z,9.73
2017-09-21T11:06:20.708Z,9.70
2017-09-21T11:08:48.675Z,9.40
2017-09-21T11:11:16.555Z,11.40
2017-09-21T11:13:44.428Z,9.77
2017-09-21T11:16:13.084Z,11.20
2017-09-21T11:18:40.920Z,9.20
2017-09-21T11:21:08.895Z,10.20
2017-09-21T11:23:36.787Z,11.23
2017-09-21T11:26:04.654Z,10.03
2017-09-21T11:28:32.543Z,10.30
2017-09-21T11:31:00.388Z,10.23
2017-09-21T11:33:28.320Z,9.40
2017-09-21T11:35:56.249Z,10.90
2017-09-21T11:38:24.157Z,9.20
2017-09-21T11:40:52.020Z,10.07
2017-09-21T11:43:20.647Z,9.60
2017-09-21T11:45:48.579Z,9.50
2017-09-21T11:48:16.553Z,8.90
2017-09-21T11:50:45.230Z,9.23
2017-09-21T11:53:14.004Z,8.27
2017-09-21T11:55:41.804Z,7.60
2017-09-21T11:58:09.919Z,9.40
2017-09-21T12:00:37.872Z,8.03
2017-09-21T12:03:05.724Z,7.60
2017-09-21T12:05:33.702Z,7.87
2017-09-21T12:08:01.516Z,6.07
2017-09-21T12:10:29.480Z,6.43
2017-09-21T12:12:57.365Z,7.50
2017-09-21T12:15:25.296Z,6.87
2017-09-21T12:17:53.153Z,6.83
2017-09-21T12:20:21.114Z,8.10
2017-09-21T12:22:49.014Z,5.50
2017-09-21T12:25:18.162Z,5.70
2017-09-21T12:27:46.167Z,7.27
2017-09-21T12:30:14.095Z,6.03
2017-09-21T12:32:42.847Z,6.23
2017-09-21T12:35:10.789Z,6.90
2017-09-21T12:37:38.626Z,7.83
2017-09-21T12:40:07.592Z,8.43
2017-09-21T12:42:35.395Z,6.97
2017-09-21T12:45:03.260Z,5.47
2017-09-21T12:47:31.164Z,7.43
2017-09-21T12:49:58.945Z,5.73
2017-09-21T12:52:26.815Z,5.50
2017-09-21T12:54:54.608Z,6.23
2017-09-21T12:57:22.394Z,7.60
2017-09-21T12:59:50.306Z,5.53
2017-09-21T13:02:18.322Z,5.60
2017-09-21T13:04:46.251Z,5.27
2017-09-21T13:07:14.129Z,5.73
2017-09-21T13:09:42.048Z,6.33
2017-09-21T13:12:10.467Z,6.00
2017-09-21T13:14:38.343Z,4.87
2017-09-21T13:17:06.158Z,5.80
2017-09-21T13:19:33.954Z,5.70
2017-09-21T13:22:01.983Z,3.80
2017-09-21T13:24:29.935Z,5.17
2017-09-21T13:26:59.800Z,4.43
2017-09-21T13:29:28.395Z,5.40
2017-09-21T13:31:56.396Z,5.43
2017-09-21T13:34:24.341Z,5.50
2017-09-21T13:36:52.216Z,5.17
2017-09-21T13:39:20.076Z,4.90
2017-09-21T13:41:49.232Z,4.73
2017-09-21T13:44:17.118Z,5.50
2017-09-21T13:46:45.034Z,5.40
2017-09-21T13:49:12.860Z,4.03
2017-09-21T13:51:40.677Z,4.50
2017-09-21T13:54:08.443Z,4.70
2017-09-21T13:56:36.208Z,5.40
2017-09-21T13:59:04.072Z,6.00
2017-09-21T14:01:31.878Z,4.83
2017-09-21T14:03:59.639Z,4.90
2017-09-21T14:06:27.489Z,4.23
2017-09-21T14:08:55.292Z,5.13
2017-09-21T14:11:23.179Z,4.50
2017-09-21T14:13:51.988Z,5.53
2017-09-21T14:16:19.777Z,4.03
2017-09-21T14:18:47.498Z,4.17
2017-09-21T14:21:15.320Z,4.40
2017-09-21T14:23:43.147Z,4.97
2017-09-21T14:26:11.081Z,7.23
2017-09-21T14:28:38.999Z,5.10
2017-09-21T14:31:06.846Z,4.80
2017-09-21T14:33:34.752Z,5.23
2017-09-21T14:36:02.526Z,4.70
2017-09-21T14:38:30.384Z,4.90
2017-09-21T14:40:58.184Z,5.60
2017-09-21T14:43:26.084Z,5.00
2017-09-21T14:45:53.976Z,5.07
2017-09-21T14:48:21.887Z,6.07
2017-09-21T14:50:49.750Z,5.67
2017-09-21T14:53:17.699Z,6.00
2017-09-21T14:55:45.557Z,5.40
2017-09-21T14:58:13.476Z,5.40
2017-09-21T15:00:41.811Z,4.63
2017-09-21T15:03:10.502Z,10.43
2017-09-21T15:05:39.745Z,4.97
2017-09-21T15:08:07.701Z,4.67
2017-09-21T15:10:35.440Z,5.27
2017-09-21T15:13:03.283Z,5.47
2017-09-21T15:15:31.010Z,5.70
2017-09-21T15:17:58.745Z,5.80
2017-09-21T15:20:26.576Z,4.20
2017-09-21T15:22:54.318Z,6.60
2017-09-21T15:25:22.111Z,5.10
2017-09-21T15:27:49.844Z,4.80
2017-09-21T15:30:17.663Z,5.60
2017-09-21T15:32:45.489Z,5.30
2017-09-21T15:35:13.283Z,5.87
2017-09-21T15:37:41.100Z,5.50
2017-09-21T15:40:08.939Z,4.83
2017-09-21T15:42:37.579Z,4.87
2017-09-21T15:45:05.437Z,5.80
2017-09-21T15:47:33.274Z,12.27
2017-09-21T15:50:01.181Z,5.80
2017-09-21T15:52:29.848Z,5.50
2017-09-21T15:54:57.740Z,4.40
2017-09-21T15:57:25.678Z,4.67
2017-09-21T15:59:53.467Z,4.37
2017-09-21T16:02:22.239Z,4.73
2017-09-21T16:04:50.084Z,4.60
2017-09-21T16:07:18.616Z,5.20
2017-09-21T16:09:47.277Z,3.80
2017-09-21T16:12:15.088Z,4.80
2017-09-21T16:14:42.968Z,6.27
2017-09-21T16:17:10.846Z,5.00
2017-09-21T16:19:38.940Z,4.87
2017-09-21T16:22:07.649Z,4.50
2017-09-21T16:24:35.428Z,4.00
2017-09-21T16:27:03.205Z,5.70
2017-09-21T16:29:31.138Z,4.43
2017-09-21T16:31:58.903Z,7.37
2017-09-21T16:34:27.837Z,5.10
2017-09-21T16:36:55.665Z,5.10
2017-09-21T16:39:27.406Z,4.33
2017-09-21T16:41:55.263Z,5.40
2017-09-21T16:44:23.112Z,4.67
2017-09-21T16:46:51.158Z,4.67
2017-09-21T16:49:20.518Z,4.10
2017-09-21T16:51:50.950Z,4.80
2017-09-21T16:54:19.499Z,3.93
2017-09-21T16:56:48.572Z,4.40
2017-09-21T16:59:23.669Z,5.90
2017-09-21T17:01:56.889Z,5.17
2017-09-21T17:04:27.175Z,4.20
2017-09-21T17:06:56.901Z,4.20
2017-09-21T17:09:31.171Z,3.70
2017-09-21T17:12:25.559Z,3.97
2017-09-21T17:15:03.879Z,5.30
2017-09-21T17:17:32.753Z,3.10
2017-09-21T17:22:38.391Z,3.80
2017-09-21T17:25:06.203Z,3.70
2017-09-21T17:27:35.848Z,4.20
2017-09-21T17:30:03.921Z,3.70
2017-09-21T17:32:31.817Z,3.47
2017-09-21T17:34:59.605Z,3.37
2017-09-21T17:37:27.588Z,4.20
2017-09-21T17:39:55.482Z,4.67
2017-09-21T17:42:24.262Z,3.50
2017-09-21T17:44:52.040Z,3.97
2017-09-21T17:47:22.757Z,3.77
2017-09-21T17:53:10.074Z,3.97
2017-09-21T17:55:52.422Z,3.30
2017-09-21T17:58:20.378Z,3.50
2017-09-21T18:00:48.128Z,3.00
2017-09-21T18:05:55.679Z,3.37
2017-09-21T18:08:24.127Z,3.70
2017-09-21T18:10:53.005Z,4.53
2017-09-21T18:13:25.471Z,4.53
2017-09-21T18:15:53.456Z,4.40
2017-09-21T18:18:23.363Z,3.73
2017-09-21T18:20:51.577Z,4.00
2017-09-21T18:23:19.650Z,3.60
2017-09-21T18:25:51.864Z,5.00
2017-09-21T18:28:27.488Z,5.30
2017-09-21T18:46:54.627Z,5.67
2017-09-21T18:52:42.144Z,4.77
2017-09-21T19:12:36.999Z,5.30
2017-09-21T19:48:04.141Z,4.17
2017-09-21T19:51:04.956Z,4.30
2017-09-21T19:59:18.087Z,3.77
2017-09-21T20:01:46.937Z,3.80
2017-09-21T20:04:14.959Z,4.17
2017-09-21T20:06:42.936Z,4.00
2017-09-21T20:09:13.596Z,3.73
2017-09-21T20:11:43.408Z,4.03
2017-09-21T20:14:11.466Z,4.30
2017-09-21T20:16:39.958Z,4.10
2017-09-21T20:19:07.839Z,3.50
2017-09-21T20:21:35.744Z,3.70
2017-09-21T20:24:12.274Z,3.50
2017-09-21T20:26:40.079Z,3.30
2017-09-21T20:29:07.912Z,4.03
2017-09-21T20:31:35.736Z,4.53
2017-09-21T20:34:04.348Z,4.10
2017-09-21T20:36:37.954Z,3.93
2017-09-21T20:39:10.009Z,3.13
2017-09-21T20:41:37.788Z,2.60
2017-09-21T20:44:06.950Z,2.60
2017-09-21T20:46:34.748Z,2.63
2017-09-21T20:49:02.559Z,3.17
2017-09-21T20:51:30.405Z,2.00
2017-09-21T20:53:58.270Z,1.87
2017-09-21T20:56:26.037Z,2.23
2017-09-21T20:58:53.849Z,2.07
2017-09-21T21:01:21.626Z,2.50
2017-09-21T21:03:50.418Z,1.87
2017-09-21T21:06:18.231Z,1.97
2017-09-21T21:08:46.022Z,3.63
2017-09-21T21:11:14.505Z,2.50
2017-09-21T21:13:43.048Z,1.53
2017-09-21T21:16:10.903Z,1.60
2017-09-21T21:18:38.691Z,2.30
2017-09-21T21:21:06.489Z,1.90
2017-09-21T21:23:35.145Z,2.60
2017-09-21T21:26:02.911Z,2.27
2017-09-21T21:28:30.668Z,1.60
2017-09-21T21:30:58.582Z,2.17
2017-09-21T21:33:26.497Z,2.00
2017-09-21T21:35:54.393Z,2.17
2017-09-21T21:38:22.358Z,1.87
2017-09-21T21:40:50.213Z,1.40
2017-09-21T21:43:18.026Z,1.87
2017-09-21T21:45:45.866Z,1.80
2017-09-21T21:48:13.632Z,1.83
2017-09-21T21:50:41.434Z,2.40
2017-09-21T21:53:09.271Z,2.00
2017-09-21T21:55:45.252Z,1.90
2017-09-21T21:58:13.296Z,1.93
2017-09-21T22:00:42.481Z,2.00
2017-09-21T22:03:10.305Z,1.40
2017-09-21T22:05:38.148Z,2.53
2017-09-21T22:08:05.935Z,2.00
2017-09-21T22:10:34.693Z,2.47
2017-09-21T22:13:02.497Z,1.63
2017-09-21T22:15:31.056Z,1.87
2017-09-21T22:17:58.933Z,1.93
2017-09-21T22:20:26.679Z,2.37
2017-09-21T22:22:54.782Z,1.60
2017-09-21T22:25:23.488Z,2.30
2017-09-21T22:27:51.384Z,2.20
2017-09-21T22:30:19.270Z,1.80
2017-09-21T22:32:47.146Z,2.00
2017-09-21T22:35:15.052Z,1.60
2017-09-21T22:37:42.945Z,1.73
2017-09-21T22:40:10.791Z,2.37
2017-09-21T22:42:38.657Z,1.53
2017-09-21T22:45:06.535Z,1.90
2017-09-21T22:47:35.162Z,1.47
2017-09-21T22:50:03.056Z,1.43
2017-09-21T22:52:30.913Z,2.60
2017-09-21T22:54:58.871Z,1.53
2017-09-21T22:57:26.792Z,1.50
2017-09-21T22:59:54.671Z,2.10
2017-09-21T23:02:23.378Z,1.90
2017-09-21T23:04:51.253Z,2.10
2017-09-21T23:07:19.101Z,1.80
2017-09-21T23:09:47.042Z,1.63
2017-09-21T23:12:14.926Z,2.30
2017-09-21T23:14:42.772Z,2.30
2017-09-21T23:17:10.737Z,1.97
2017-09-21T23:19:38.584Z,1.57
2017-09-21T23:22:06.462Z,1.80
2017-09-21T23:24:34.324Z,1.97
2017-09-21T23:27:02.188Z,1.80
2017-09-21T23:29:30.053Z,1.70
2017-09-21T23:31:57.995Z,1.93
2017-09-21T23:34:25.877Z,1.30
2017-09-21T23:36:53.742Z,1.73
2017-09-21T23:39:21.602Z,2.00
2017-09-21T23:41:49.492Z,1.60
2017-09-21T23:44:17.340Z,1.90
2017-09-21T23:46:45.194Z,1.23
2017-09-21T23:49:13.043Z,1.63
2017-09-21T23:51:40.898Z,1.70
2017-09-21T23:54:08.758Z,1.60
2017-09-21T23:56:36.674Z,1.70
2017-09-21T23:59:04.587Z,2.00
